Time;durP1;ratioP1;P1;durP2;ratioP2;P2;SDS_P1;SDS_P2;PMS_P1;PMS_P2;Temp;Humidity;BMP_temperature;BMP_pressure;BME280_temperature;BME280_humidity;BME280_pressure;Samples;Min_cycle;Max_cycle;Signal;HPM_P1;HPM_P2
2022/02/11 00:09:03;;;;;;;30.50;21.05;;;;;;;12.67;79.71;100602.79;1664008;85;21623;-66
2022/02/11 00:11:34;;;;;;;26.85;19.35;;;;;;;12.84;76.40;100598.09;1669626;84;21120;-67
2022/02/11 00:14:03;;;;;;;25.77;18.40;;;;;;;12.77;76.92;100592.83;1649867;85;22346;-67
2022/02/11 00:16:30;;;;;;;29.50;18.80;;;;;;;12.74;77.56;100598.42;1663653;86;21086;-66
2022/02/11 00:18:59;;;;;;;27.30;19.07;;;;;;;12.49;80.28;100599.80;1663738;86;21536;-67
2022/02/11 00:21:28;;;;;;;26.50;18.70;;;;;;;11.86;89.38;100601.66;1669554;84;21005;-67
2022/02/11 00:23:56;;;;;;;28.12;18.30;;;;;;;12.30;88.89;100592.08;1641917;86;21226;-67
2022/02/11 00:26:32;;;;;;;25.55;18.12;;;;;;;12.38;85.19;100584.91;1663714;86;21110;-67
2022/02/11 00:33:59;;;;;;;27.77;19.30;;;;;;;13.09;77.45;100588.02;1665839;84;21012;-67
2022/02/11 00:36:33;;;;;;;26.90;19.23;;;;;;;12.80;80.11;100589.80;1669912;84;21154;-67
2022/02/11 01:06:10;;;;;;;24.12;16.73;;;;;;;12.74;77.43;100576.19;1650499;86;21032;-68
2022/02/11 01:08:40;;;;;;;25.70;17.12;;;;;;;12.71;77.62;100573.14;1663566;84;20982;-68
2022/02/11 01:11:13;;;;;;;26.00;17.23;;;;;;;12.85;76.90;100578.30;1634518;86;22355;-67
2022/02/11 01:13:36;;;;;;;24.65;16.87;;;;;;;12.82;75.36;100579.97;1635816;86;21038;-69
2022/02/11 01:16:10;;;;;;;26.05;17.73;;;;;;;12.73;76.41;100586.36;1624631;86;21512;-69
2022/02/11 01:18:33;;;;;;;24.60;17.70;;;;;;;12.53;78.12;100586.66;1634591;86;21036;-68
2022/02/11 01:21:05;;;;;;;26.20;17.95;;;;;;;12.82;76.22;100590.94;1634435;86;20965;-69
2022/02/11 01:28:43;;;;;;;29.30;20.62;;;;;;;12.63;77.17;100581.44;1658961;86;21135;-70
2022/02/11 01:39:16;;;;;;;24.57;18.30;;;;;;;12.94;74.05;100563.76;1660439;85;21459;-69
2022/02/11 01:44:34;;;;;;;25.90;18.27;;;;;;;12.80;74.72;100554.48;1660375;85;21889;-71
2022/02/11 01:52:24;;;;;;;29.15;19.05;;;;;;;12.55;78.99;100563.77;1651052;85;21004;-67
2022/02/11 01:58:09;;;;;;;31.52;21.70;;;;;;;12.72;76.88;100557.25;1634622;86;21392;-68
2022/02/11 02:11:23;;;;;;;29.70;19.48;;;;;;;13.13;71.08;100559.15;1676429;84;21145;-67
2022/02/11 02:24:10;;;;;;;31.62;21.55;;;;;;;14.28;60.67;100554.48;1664357;84;21694;-69
2022/02/11 02:35:17;;;;;;;36.40;22.50;;;;;;;13.80;62.79;100548.52;1663104;84;21183;-68
2022/02/11 02:43:23;;;;;;;30.97;21.05;;;;;;;14.04;61.87;100558.97;1663149;84;20970;-67
2022/02/11 02:50:19;;;;;;;30.12;20.55;;;;;;;14.09;60.72;100549.99;1662808;84;21021;-68
2022/02/11 02:58:17;;;;;;;32.17;22.42;;;;;;;14.47;56.92;100546.33;1662908;84;20935;-67
2022/02/11 03:56:01;;;;;;;31.62;21.62;;;;;;;11.97;84.84;100535.55;1615420;86;21261;-70
2022/02/11 04:55:16;;;;;;;31.33;18.82;;;;;;;12.66;76.42;100571.10;1726066;82;20940;-66
2022/02/11 05:00:19;;;;;;;31.40;19.32;;;;;;;12.69;75.57;100572.52;1729685;82;22310;-66
2022/02/11 05:02:48;;;;;;;28.40;18.50;;;;;;;12.53;77.70;100577.01;1728882;81;21521;-71
2022/02/11 05:05:16;;;;;;;29.18;18.32;;;;;;;12.97;73.19;100577.77;1729884;82;20995;-66
2022/02/11 05:07:43;;;;;;;29.32;19.80;;;;;;;12.93;72.85;100573.92;1728869;82;21002;-71
2022/02/11 05:10:13;;;;;;;28.10;18.42;;;;;;;12.90;74.09;100575.09;1729893;82;21170;-65
2022/02/11 05:12:45;;;;;;;30.05;19.45;;;;;;;13.05;72.33;100571.08;1729405;81;21021;-65
2022/02/11 05:15:12;;;;;;;30.90;19.30;;;;;;;13.45;69.03;100576.56;1729426;82;21177;-67
2022/02/11 05:17:43;;;;;;;28.62;18.32;;;;;;;12.96;71.36;100581.39;1729692;81;20994;-69
2022/02/11 05:20:10;;;;;;;29.05;19.12;;;;;;;12.71;73.73;100583.61;1730111;82;21792;-66
2022/02/11 05:22:37;;;;;;;32.25;20.80;;;;;;;13.01;72.76;100575.89;1720157;81;21054;-66
2022/02/11 05:25:08;;;;;;;28.38;18.75;;;;;;;12.97;70.95;100576.47;1737685;81;21142;-68
2022/02/11 05:27:38;;;;;;;36.05;22.15;;;;;;;13.20;69.69;100577.02;1729615;81;21204;-70
2022/02/11 05:30:06;;;;;;;43.98;24.77;;;;;;;12.92;71.49;100571.81;1730409;81;21301;-67
2022/02/11 05:32:33;;;;;;;36.93;22.32;;;;;;;12.96;71.84;100568.31;1731326;81;21067;-67
2022/02/11 05:35:02;;;;;;;30.25;20.15;;;;;;;12.51;76.80;100568.56;1728902;81;20977;-68
2022/02/11 05:37:28;;;;;;;35.30;21.37;;;;;;;12.54;79.39;100581.27;1733868;81;21045;-65
2022/02/11 05:39:56;;;;;;;32.35;19.65;;;;;;;12.56;79.47;100569.30;1728334;82;20995;-67
2022/02/11 05:42:22;;;;;;;31.33;19.30;;;;;;;12.65;77.77;100564.23;1733363;82;21571;-67
2022/02/11 05:44:49;;;;;;;28.90;20.12;;;;;;;12.60;78.86;100564.00;1731685;82;21013;-64
2022/02/11 05:47:16;;;;;;;29.52;19.40;;;;;;;12.65;79.71;100570.77;1733108;82;21001;-67
2022/02/11 05:49:42;;;;;;;29.37;19.32;;;;;;;13.17;72.05;100568.73;1733584;82;21515;-70
2022/02/11 05:52:09;;;;;;;29.02;19.55;;;;;;;12.85;76.34;100574.37;1731084;82;21353;-65
2022/02/11 05:54:36;;;;;;;28.12;19.20;;;;;;;12.86;76.37;100572.05;1732628;82;21299;-68
2022/02/11 05:57:04;;;;;;;30.37;19.77;;;;;;;13.18;73.16;100572.45;1725016;81;21545;-67
2022/02/11 05:59:31;;;;;;;27.98;18.60;;;;;;;13.03;72.62;100578.30;1733483;82;21044;-70
2022/02/11 06:01:57;;;;;;;29.85;19.05;;;;;;;13.20;72.66;100579.63;1730305;81;20908;-65
2022/02/11 06:04:24;;;;;;;30.80;18.98;;;;;;;13.19;71.94;100572.79;1731008;82;21103;-69
2022/02/11 06:06:53;;;;;;;30.32;19.25;;;;;;;13.24;71.75;100579.59;1731311;82;21002;-67
2022/02/11 06:09:20;;;;;;;27.37;19.67;;;;;;;13.39;70.88;100582.89;1732470;82;21033;-65
2022/02/11 06:11:47;;;;;;;28.35;18.67;;;;;;;13.86;67.63;100582.62;1733291;82;20904;-70
2022/02/11 06:14:16;;;;;;;30.57;20.43;;;;;;;13.50;68.54;100582.05;1731656;81;21041;-66
2022/02/11 06:16:43;;;;;;;27.87;18.73;;;;;;;13.43;69.02;100574.66;1733340;82;21149;-70
2022/02/11 06:19:09;;;;;;;27.25;18.98;;;;;;;13.46;70.93;100570.35;1732670;81;21069;-64
2022/02/11 06:21:36;;;;;;;29.60;19.62;;;;;;;13.54;70.88;100574.11;1732136;82;21447;-70
2022/02/11 06:24:06;;;;;;;28.40;18.67;;;;;;;13.78;68.04;100575.41;1725981;82;20912;-66
2022/02/11 06:26:32;;;;;;;25.48;18.45;;;;;;;13.77;68.77;100571.98;1730771;82;20965;-66
2022/02/11 06:28:58;;;;;;;26.27;17.07;;;;;;;13.84;69.11;100563.65;1731508;82;22584;-66
2022/02/11 06:31:25;;;;;;;26.50;17.48;;;;;;;14.03;67.64;100571.77;1725898;82;21094;-68
2022/02/11 06:33:52;;;;;;;23.87;16.48;;;;;;;14.54;64.52;100558.95;1728354;81;21080;-68
2022/02/11 06:36:19;;;;;;;24.85;17.52;;;;;;;14.94;60.60;100560.77;1729384;81;21078;-68
2022/02/11 06:38:46;;;;;;;29.35;20.30;;;;;;;14.60;62.02;100561.29;1730280;82;21010;-68
2022/02/11 06:41:13;;;;;;;23.38;17.48;;;;;;;14.76;61.99;100556.13;1732612;82;21148;-68
2022/02/11 06:43:39;;;;;;;29.45;19.20;;;;;;;14.93;61.10;100555.23;1733249;82;21046;-67
2022/02/11 06:46:06;;;;;;;27.85;19.00;;;;;;;15.08;59.53;100553.98;1731974;82;20973;-70
2022/02/11 06:48:32;;;;;;;25.37;17.95;;;;;;;14.96;61.11;100554.80;1732429;82;21002;-68
2022/02/11 06:50:59;;;;;;;24.20;18.07;;;;;;;14.87;60.64;100552.90;1736339;81;21611;-70
2022/02/11 06:53:26;;;;;;;27.22;19.02;;;;;;;14.89;61.41;100553.99;1737470;81;21623;-70
2022/02/11 06:55:53;;;;;;;25.92;17.52;;;;;;;15.20;59.82;100555.98;1734462;81;20981;-68
2022/02/11 06:58:21;;;;;;;23.27;17.48;;;;;;;14.81;61.15;100557.16;1736791;81;22230;-68
2022/02/11 07:00:50;;;;;;;23.15;17.92;;;;;;;15.00;60.94;100556.83;1734975;81;20998;-68
2022/02/11 07:03:17;;;;;;;25.50;18.30;;;;;;;15.27;58.51;100549.70;1711931;81;21339;-68
2022/02/11 07:05:44;;;;;;;24.80;17.55;;;;;;;14.88;60.53;100551.08;1689492;83;21153;-69
2022/02/11 07:08:11;;;;;;;23.75;17.10;;;;;;;14.48;60.51;100543.20;1669192;84;20907;-67
2022/02/11 07:10:38;;;;;;;28.93;19.00;;;;;;;14.74;61.56;100547.16;1667337;84;22032;-67
2022/02/11 07:13:05;;;;;;;24.32;17.87;;;;;;;14.47;63.17;100545.50;1696323;83;21791;-67
2022/02/11 07:15:34;;;;;;;25.52;18.77;;;;;;;14.76;62.82;100538.57;1699914;83;21132;-67
2022/02/11 07:18:00;;;;;;;25.50;17.93;;;;;;;14.63;63.16;100540.41;1729375;81;22010;-68
2022/02/11 07:20:29;;;;;;;25.60;18.50;;;;;;;14.83;61.15;100540.69;1734605;81;21217;-67
2022/02/11 07:22:55;;;;;;;28.53;19.77;;;;;;;14.76;60.51;100539.88;1731488;81;21844;-68
2022/02/11 07:25:22;;;;;;;26.00;19.05;;;;;;;14.66;60.20;100541.30;1728689;82;21231;-69
2022/02/11 07:27:48;;;;;;;26.07;18.30;;;;;;;14.59;61.22;100538.19;1729869;82;20954;-70
2022/02/11 07:30:15;;;;;;;25.17;17.23;;;;;;;14.49;61.89;100535.63;1731511;82;21394;-70
2022/02/11 07:32:42;;;;;;;23.63;16.17;;;;;;;14.44;62.48;100539.38;1728219;81;21306;-68
2022/02/11 07:35:09;;;;;;;25.60;17.60;;;;;;;14.39;63.71;100535.21;1728732;81;21384;-68
2022/02/11 07:37:35;;;;;;;28.83;20.03;;;;;;;14.18;62.50;100535.70;1730616;81;21096;-68
2022/02/11 07:40:19;;;;;;;25.63;17.80;;;;;;;13.55;70.33;100537.74;1642321;85;21253;-67
2022/02/11 07:42:47;;;;;;;24.65;18.40;;;;;;;13.57;70.80;100527.89;1617965;86;21242;-69
2022/02/11 07:45:15;;;;;;;26.30;19.60;;;;;;;13.72;70.43;100531.67;1616579;88;20951;-67
2022/02/11 07:47:42;;;;;;;27.20;18.20;;;;;;;13.54;70.71;100529.59;1616908;86;21389;-70
2022/02/11 07:50:09;;;;;;;23.92;17.45;;;;;;;14.58;64.43;100518.70;1616135;87;21784;-67
2022/02/11 07:52:36;;;;;;;30.60;19.37;;;;;;;14.96;60.50;100520.67;1642152;85;21098;-67
2022/02/11 07:55:05;;;;;;;27.07;19.67;;;;;;;15.07;58.32;100511.66;1612958;87;21444;-67
2022/02/11 07:57:32;;;;;;;28.07;18.82;;;;;;;14.74;61.03;100521.44;1646087;85;21162;-68
2022/02/11 08:00:04;;;;;;;29.30;21.43;;;;;;;14.70;61.40;100522.34;1641345;85;21146;-68
2022/02/11 08:02:27;;;;;;;25.53;18.57;;;;;;;14.86;62.01;100518.99;1642110;85;21539;-68
2022/02/11 08:04:54;;;;;;;25.47;18.93;;;;;;;15.00;61.45;100519.25;1616722;85;21579;-69
2022/02/11 08:07:21;;;;;;;29.93;21.67;;;;;;;15.38;59.30;100511.96;1615369;87;21244;-65
2022/02/11 08:09:49;;;;;;;27.87;20.57;;;;;;;15.47;59.09;100513.36;1618738;85;21204;-71
2022/02/11 08:12:17;;;;;;;26.03;19.40;;;;;;;15.47;58.01;100507.59;1615342;87;21839;-67
2022/02/11 08:14:44;;;;;;;26.33;18.53;;;;;;;15.26;59.66;100506.05;1640849;85;21853;-67
2022/02/11 08:17:10;;;;;;;29.87;20.53;;;;;;;15.21;59.92;100512.95;1618247;85;21332;-65
2022/02/11 08:19:36;;;;;;;29.80;21.17;;;;;;;15.39;61.15;100508.34;1603135;87;21380;-67
2022/02/11 08:22:05;;;;;;;29.40;19.97;;;;;;;15.54;60.63;100500.48;1617027;86;21323;-67
2022/02/11 08:24:32;;;;;;;31.50;19.83;;;;;;;15.53;60.43;100500.20;1619175;86;21423;-69
2022/02/11 08:26:58;;;;;;;30.00;21.37;;;;;;;15.53;60.10;100505.94;1643480;87;21758;-70
2022/02/11 08:29:26;;;;;;;26.67;18.90;;;;;;;15.83;59.05;100498.84;1620203;85;21303;-68
2022/02/11 08:31:56;;;;;;;28.20;19.23;;;;;;;16.09;57.60;100491.30;1616103;87;22159;-70
2022/02/11 08:34:23;;;;;;;26.53;18.90;;;;;;;16.23;55.92;100500.19;1620549;86;21416;-65
2022/02/11 08:36:50;;;;;;;31.67;21.83;;;;;;;16.42;54.53;100497.63;1618478;86;21347;-65
2022/02/11 08:39:18;;;;;;;29.13;19.93;;;;;;;16.28;54.36;100500.34;1621305;85;21263;-67
2022/02/11 08:41:45;;;;;;;27.60;19.27;;;;;;;16.34;54.01;100500.53;1650759;85;22882;-72
2022/02/11 08:44:12;;;;;;;26.93;19.43;;;;;;;16.29;54.01;100500.66;1651029;85;21328;-69
2022/02/11 08:46:38;;;;;;;30.47;21.93;;;;;;;16.24;54.44;100495.22;1647927;85;21012;-67
2022/02/11 08:49:05;;;;;;;29.10;20.53;;;;;;;16.05;54.53;100486.97;1652480;85;21212;-68
2022/02/11 08:51:31;;;;;;;28.43;21.03;;;;;;;16.01;54.64;100486.59;1654467;84;21801;-68
2022/02/11 08:53:59;;;;;;;28.63;21.73;;;;;;;16.11;54.27;100483.50;1652722;84;21431;-68
2022/02/11 08:56:28;;;;;;;31.43;21.63;;;;;;;16.38;53.41;100492.50;1650728;85;21416;-64
2022/02/11 08:58:55;;;;;;;31.77;21.53;;;;;;;16.77;51.90;100497.93;1645880;85;21930;-68
2022/02/11 09:01:23;;;;;;;30.50;21.67;;;;;;;16.70;51.25;100482.68;1646650;85;21345;-69
2022/02/11 09:03:49;;;;;;;29.47;21.87;;;;;;;16.53;51.06;100484.56;1619026;86;21329;-72
2022/02/11 09:06:18;;;;;;;31.27;22.60;;;;;;;16.68;50.72;100471.06;1648053;85;21385;-65
2022/02/11 09:08:45;;;;;;;31.40;23.00;;;;;;;16.32;50.91;100476.25;1648538;85;21164;-66
2022/02/11 09:11:19;;;;;;;31.53;21.43;;;;;;;15.79;52.70;100482.17;1648251;85;21131;-74
2022/02/11 09:13:43;;;;;;;;;;;;;;;15.81;52.59;100479.35;1649262;86;21307;-66
2022/02/11 09:16:09;;;;;;;31.97;21.40;;;;;;;15.62;53.35;100471.84;1619418;87;20261;-72
2022/02/11 09:18:36;;;;;;;32.03;22.13;;;;;;;15.70;53.10;100470.31;1649301;85;21375;-64
2022/02/11 09:21:03;;;;;;;30.93;21.33;;;;;;;15.58;53.53;100465.41;1639878;85;21171;-64
2022/02/11 09:23:29;;;;;;;27.90;20.70;;;;;;;15.52;53.88;100458.36;1641500;85;21283;-66
2022/02/11 09:25:56;;;;;;;29.07;21.13;;;;;;;15.27;54.77;100460.41;1648032;85;21506;-73
2022/02/11 09:28:23;;;;;;;30.60;20.80;;;;;;;15.44;54.50;100461.23;1642690;85;21376;-69
2022/02/11 09:30:50;;;;;;;28.37;20.00;;;;;;;15.58;54.69;100455.70;1647083;85;21461;-69
2022/02/11 09:33:17;;;;;;;32.47;21.93;;;;;;;15.32;55.10;100461.89;1646177;85;21276;-74
2022/02/11 09:35:46;;;;;;;34.57;22.90;;;;;;;15.29;54.91;100453.62;1647959;85;21427;-65
2022/02/11 09:38:13;;;;;;;36.33;25.60;;;;;;;15.21;55.33;100446.78;1649095;85;22073;-75
2022/02/11 09:40:40;;;;;;;31.70;22.20;;;;;;;14.87;56.52;100456.30;1648350;85;21431;-65
2022/02/11 09:43:08;;;;;;;29.97;21.00;;;;;;;14.67;58.70;100454.53;1608948;86;21351;-67
2022/02/11 09:45:35;;;;;;;31.25;22.80;;;;;;;14.93;58.35;100451.03;1656382;85;22835;-65
2022/02/11 09:48:04;;;;;;;33.93;22.10;;;;;;;15.41;56.59;100451.13;1645759;86;21044;-65
2022/02/11 09:50:31;;;;;;;30.33;20.13;;;;;;;14.99;57.47;100444.94;1649333;85;21524;-65
2022/02/11 09:52:58;;;;;;;31.73;21.17;;;;;;;15.02;57.62;100447.67;1653727;83;21763;-67
2022/02/11 09:55:32;;;;;;;36.93;25.13;;;;;;;14.82;59.19;100439.86;1648301;85;21375;-71
2022/02/11 09:58:15;;;;;;;37.33;23.80;;;;;;;14.83;60.22;100433.08;1648303;85;21371;-63
2022/02/11 10:00:44;;;;;;;37.30;23.67;;;;;;;15.23;57.76;100429.02;1646718;85;21424;-64
2022/02/11 10:03:26;;;;;;;37.23;23.63;;;;;;;15.43;57.41;100418.40;1655769;85;21028;-72
2022/02/11 10:05:58;;;;;;;;;;;;;;;14.82;59.06;100422.80;1658804;85;21129;-65
2022/02/11 10:08:26;;;;;;;34.73;23.60;;;;;;;14.99;59.43;100423.14;1635945;86;20553;-62
2022/02/11 10:10:54;;;;;;;39.23;24.43;;;;;;;15.13;60.08;100421.28;1636604;86;21163;-66
2022/02/11 10:13:25;;;;;;;33.63;21.90;;;;;;;14.70;60.59;100420.48;1649173;86;21475;-63
2022/02/11 10:15:56;;;;;;;;;;;;;;;14.86;60.72;100412.70;1653661;84;21670;-65
2022/02/11 10:18:30;;;;;;;38.53;24.30;;;;;;;14.86;59.85;100410.08;1622112;88;20181;-64
2022/02/11 10:21:00;;;;;;;34.07;23.80;;;;;;;15.09;59.35;100403.82;1639204;86;21275;-64
2022/02/11 10:23:36;;;;;;;33.70;23.23;;;;;;;15.37;57.00;100394.78;1652469;85;21601;-71
2022/02/11 10:26:09;;;;;;;34.03;23.37;;;;;;;15.78;55.50;100400.41;1648232;85;21532;-67
2022/02/11 10:28:51;;;;;;;35.33;23.47;;;;;;;15.81;54.06;100398.67;1618133;88;21469;-69
2022/02/11 10:31:25;;;;;;;39.15;25.92;;;;;;;15.91;53.93;100394.74;1651252;85;21345;-68
2022/02/11 10:34:07;;;;;;;45.90;30.43;;;;;;;16.11;53.69;100390.14;1651423;85;21055;-64
2022/02/11 10:36:48;;;;;;;33.07;23.77;;;;;;;15.58;54.59;100389.20;1653694;85;21265;-64
2022/02/11 10:39:35;;;;;;;41.17;28.33;;;;;;;15.37;55.15;100394.27;1654174;85;21153;-66
2022/02/11 10:42:12;;;;;;;38.80;25.67;;;;;;;15.70;54.83;100400.67;1644283;85;21289;-73
2022/02/11 10:44:37;;;;;;;35.28;24.10;;;;;;;15.32;55.84;100400.16;1642899;85;21305;-67
2022/02/11 10:47:08;;;;;;;49.93;32.53;;;;;;;15.29;56.09;100395.33;1670875;84;21086;-65
2022/02/11 10:49:38;;;;;;;37.60;25.10;;;;;;;15.21;57.10;100394.77;1640976;85;21814;-65
2022/02/11 10:52:24;;;;;;;38.10;26.67;;;;;;;15.51;54.90;100387.93;1646203;85;21213;-67
2022/02/11 10:54:55;;;;;;;41.77;27.85;;;;;;;15.63;55.43;100376.73;1614032;88;21227;-66
2022/02/11 10:57:27;;;;;;;37.63;24.30;;;;;;;15.76;54.59;100380.63;1642814;87;21032;-71
2022/02/11 10:59:55;;;;;;;31.70;22.67;;;;;;;15.08;56.71;100382.52;1667486;84;21099;-65
2022/02/11 11:02:23;;;;;;;29.50;20.53;;;;;;;15.46;55.90;100378.58;1648053;85;21372;-63
2022/02/11 11:04:52;;;;;;;35.17;22.53;;;;;;;15.36;56.20;100378.73;1644996;85;21294;-65
2022/02/11 11:07:25;;;;;;;29.42;21.42;;;;;;;15.22;56.48;100381.94;1648522;85;21321;-75
2022/02/11 11:09:54;;;;;;;27.90;19.37;;;;;;;15.61;55.39;100371.70;1646995;85;21024;-73
2022/02/11 11:12:23;;;;;;;28.40;20.00;;;;;;;15.89;53.47;100365.25;1649348;85;21209;-72
2022/02/11 11:14:57;;;;;;;27.60;19.53;;;;;;;15.26;55.08;100364.23;1650658;85;21221;-65
2022/02/11 11:17:21;;;;;;;27.65;19.35;;;;;;;15.15;55.82;100358.84;1647544;86;22319;-66
2022/02/11 11:19:49;;;;;;;31.13;20.93;;;;;;;15.20;55.76;100353.78;1649861;85;22161;-64
2022/02/11 11:22:27;;;;;;;27.25;18.98;;;;;;;15.07;56.50;100345.45;1598593;85;22008;-67
2022/02/11 11:24:58;;;;;;;26.40;18.70;;;;;;;15.24;56.09;100342.64;1645332;85;21037;-67
2022/02/11 11:27:53;;;;;;;37.50;26.80;;;;;;;15.03;57.23;100350.31;1613859;87;22066;-73
2022/02/11 11:30:27;;;;;;;31.00;20.23;;;;;;;14.59;57.86;100347.19;1644686;85;20995;-67
2022/02/11 11:33:15;;;;;;;47.38;28.35;;;;;;;14.18;60.51;100346.14;1641481;86;21045;-70
2022/02/11 11:35:51;;;;;;;34.23;23.92;;;;;;;14.24;60.73;100340.06;1644974;85;20971;-64
2022/02/11 11:38:22;;;;;;;36.10;24.82;;;;;;;14.16;62.13;100342.40;1641937;85;21039;-66
2022/02/11 11:41:15;;;;;;;;;;;;;;;13.97;62.63;100339.30;1656619;84;21148;-69
2022/02/11 11:44:20;;;;;;;29.63;20.97;;;;;;;14.18;62.61;100328.59;1646459;86;20178;-68
2022/02/11 11:46:48;;;;;;;28.30;20.90;;;;;;;14.22;61.32;100326.37;1646628;85;21145;-68
2022/02/11 11:49:16;;;;;;;30.23;21.62;;;;;;;14.53;59.71;100325.70;1651443;85;22255;-67
2022/02/11 11:51:52;;;;;;;26.68;19.37;;;;;;;14.23;60.60;100323.53;1647606;85;21109;-70
2022/02/11 11:54:22;;;;;;;25.15;18.65;;;;;;;14.06;61.32;100327.61;1674270;83;21957;-66
2022/02/11 11:57:17;;;;;;;26.80;19.95;;;;;;;13.81;64.32;100328.22;1650543;85;21144;-67
2022/02/11 11:59:51;;;;;;;26.12;17.73;;;;;;;13.73;65.04;100328.43;1672317;84;22413;-70
2022/02/11 12:02:21;;;;;;;24.80;17.52;;;;;;;13.56;66.47;100325.42;1653848;85;21489;-64
2022/02/11 12:04:56;;;;;;;22.93;16.63;;;;;;;13.82;64.28;100328.52;1650644;85;21159;-66
2022/02/11 12:07:34;;;;;;;22.82;17.65;;;;;;;14.12;62.77;100320.23;1646549;85;21928;-67
2022/02/11 12:10:06;;;;;;;80.80;48.80;;;;;;;13.90;63.06;100321.46;1669450;84;21053;-66
2022/02/11 12:12:36;;;;;;;72.03;46.15;;;;;;;14.18;60.73;100319.42;1649922;85;21058;-72
2022/02/11 12:15:06;;;;;;;26.27;18.57;;;;;;;13.99;60.89;100323.68;1646337;85;21043;-70
2022/02/11 12:17:33;;;;;;;24.37;17.50;;;;;;;13.74;61.86;100327.92;1672643;85;21279;-69
2022/02/11 12:20:03;;;;;;;31.80;24.20;;;;;;;13.78;62.01;100319.95;1673092;85;21896;-64
2022/02/11 12:22:31;;;;;;;20.52;15.85;;;;;;;13.62;62.92;100325.10;1648082;85;21381;-70
2022/02/11 12:27:49;;;;;;;18.23;12.03;;;;;;;13.56;62.90;100312.80;1648029;85;21101;-65
2022/02/11 12:30:19;;;;;;;17.80;11.85;;;;;;;13.82;62.10;100312.80;1676092;83;21509;-72
2022/02/11 12:32:53;;;;;;;21.85;12.30;;;;;;;14.09;59.50;100314.08;1679016;83;21107;-76
2022/02/11 12:35:23;;;;;;;;;;;;;;;14.12;58.91;100313.16;1652750;85;21034;-66
2022/02/11 12:37:49;;;;;;;20.27;12.73;;;;;;;13.95;60.19;100309.88;1672492;84;20293;-64
2022/02/11 12:40:25;;;;;;;18.82;12.63;;;;;;;13.90;59.79;100308.36;1674248;84;21046;-65
2022/02/11 12:42:57;;;;;;;17.20;12.70;;;;;;;14.04;59.46;100306.03;1680866;84;21117;-65
2022/02/11 12:45:25;;;;;;;;;;;;;;;14.03;58.73;100299.19;1655453;85;21167;-65
2022/02/11 12:47:53;;;;;;;14.78;10.78;;;;;;;13.91;59.43;100295.07;1617650;87;20183;-69
2022/02/11 12:50:34;;;;;;;16.32;10.45;;;;;;;13.78;59.86;100297.18;1649238;85;21068;-72
2022/02/11 12:53:04;;;;;;;16.30;10.72;;;;;;;13.97;58.86;100302.09;1647516;85;21062;-71
2022/02/11 12:55:35;;;;;;;14.47;10.18;;;;;;;14.27;57.29;100297.20;1651351;85;21092;-64
2022/02/11 12:58:01;;;;;;;34.03;23.67;;;;;;;14.22;57.00;100291.78;1679780;83;21157;-70
2022/02/11 13:00:30;;;;;;;18.90;12.80;;;;;;;14.22;56.76;100291.78;1683444;83;20913;-67
2022/02/11 13:03:00;;;;;;;16.93;13.48;;;;;;;14.27;57.18;100282.78;1684097;83;21080;-68
2022/02/11 13:05:33;;;;;;;18.48;13.38;;;;;;;14.45;55.99;100280.02;1680397;83;21015;-72
2022/02/11 13:08:03;;;;;;;19.32;13.68;;;;;;;14.30;56.73;100278.44;1680499;83;21166;-66
2022/02/11 13:10:33;;;;;;;16.52;11.48;;;;;;;14.30;56.46;100274.50;1681763;85;21070;-64
2022/02/11 13:13:03;;;;;;;18.40;11.65;;;;;;;14.42;56.15;100271.24;1682367;85;21043;-66
2022/02/11 13:15:35;;;;;;;15.20;10.32;;;;;;;14.43;56.08;100273.64;1679523;83;20964;-69
2022/02/11 13:18:16;;;;;;;18.82;11.22;;;;;;;14.61;55.46;100269.07;1669440;83;21076;-67
2022/02/11 13:20:46;;;;;;;15.07;10.07;;;;;;;14.79;54.74;100267.07;1678791;83;21081;-69
2022/02/11 13:23:14;;;;;;;14.07;9.33;;;;;;;14.67;54.64;100259.06;1680006;83;21312;-67
2022/02/11 13:25:44;;;;;;;14.85;9.28;;;;;;;14.73;54.47;100255.58;1679969;83;21075;-68
2022/02/11 13:28:16;;;;;;;16.90;9.63;;;;;;;14.70;54.53;100258.65;1646840;86;21095;-66
2022/02/11 13:30:45;;;;;;;11.75;8.23;;;;;;;14.45;55.39;100261.14;1610862;87;21095;-66
2022/02/11 13:33:25;;;;;;;12.25;8.18;;;;;;;14.10;56.88;100264.09;1680753;83;21065;-69
2022/02/11 13:35:55;;;;;;;15.00;9.25;;;;;;;14.49;56.68;100256.28;1650267;85;21207;-65
2022/02/11 13:38:31;;;;;;;13.55;9.30;;;;;;;14.19;57.37;100259.41;1645048;85;21872;-65
2022/02/11 13:41:06;;;;;;;16.62;10.20;;;;;;;13.57;61.43;100263.36;1662204;84;20980;-73
2022/02/11 13:44:01;;;;;;;13.93;9.33;;;;;;;13.29;64.98;100263.03;1680868;84;21337;-67
2022/02/11 13:46:40;;;;;;;13.35;9.55;;;;;;;13.48;65.75;100263.24;1698016;83;21552;-64
2022/02/11 13:49:16;;;;;;;11.95;8.08;;;;;;;13.17;67.04;100265.92;1688956;83;21501;-67
2022/02/11 13:51:41;;;;;;;14.68;8.90;;;;;;;12.87;70.92;100259.72;1693909;84;21065;-65
2022/02/11 13:54:12;;;;;;;20.88;11.90;;;;;;;12.79;73.69;100260.41;1673206;85;21028;-71
2022/02/11 13:56:42;;;;;;;12.98;9.05;;;;;;;13.13;71.41;100262.89;1672743;84;22051;-66
2022/02/11 13:59:14;;;;;;;14.95;8.75;;;;;;;13.30;70.86;100259.43;1677829;84;21114;-65
2022/02/11 14:01:44;;;;;;;14.25;9.53;;;;;;;13.60;66.13;100253.80;1702881;84;21088;-67
2022/02/11 14:04:14;;;;;;;13.80;9.18;;;;;;;13.77;64.16;100249.73;1702348;82;21102;-71
2022/02/11 14:06:54;;;;;;;13.70;9.20;;;;;;;14.13;62.00;100253.70;1676165;84;21142;-68
2022/02/11 14:09:36;;;;;;;16.75;10.05;;;;;;;14.23;60.53;100254.05;1677539;84;22224;-69
2022/02/11 14:12:05;;;;;;;16.87;9.98;;;;;;;14.04;61.17;100261.47;1675927;84;21158;-67
2022/02/11 14:14:33;;;;;;;16.48;10.95;;;;;;;14.28;59.79;100258.19;1674005;84;21505;-69
2022/02/11 14:17:00;;;;;;;17.48;11.88;;;;;;;14.18;59.71;100255.19;1694612;83;21080;-68
2022/02/11 14:19:27;;;;;;;62.45;29.52;;;;;;;13.83;61.49;100258.09;1693829;83;21105;-68
2022/02/11 14:21:57;;;;;;;39.15;21.95;;;;;;;14.10;61.03;100258.04;1671399;84;21336;-68
2022/02/11 14:24:26;;;;;;;20.05;11.90;;;;;;;13.95;60.82;100253.55;1676011;84;22163;-67
2022/02/11 14:26:53;;;;;;;19.55;11.73;;;;;;;13.51;64.83;100258.41;1676824;84;21128;-68
2022/02/11 14:29:20;;;;;;;23.07;13.72;;;;;;;13.47;65.68;100253.78;1696022;83;21318;-69
2022/02/11 14:31:47;;;;;;;22.85;13.62;;;;;;;13.58;64.84;100251.36;1694874;83;21086;-69
2022/02/11 14:34:15;;;;;;;20.45;12.98;;;;;;;13.64;64.40;100248.45;1694790;83;21102;-66
2022/02/11 14:36:43;;;;;;;18.02;11.20;;;;;;;13.42;66.26;100249.16;1694975;83;21054;-66
2022/02/11 14:39:14;;;;;;;18.37;11.57;;;;;;;13.36;67.27;100252.57;1673864;84;21131;-66
2022/02/11 14:41:47;;;;;;;18.02;12.53;;;;;;;13.58;65.99;100250.05;1660296;84;21159;-69
2022/02/11 14:44:18;;;;;;;16.93;11.48;;;;;;;13.25;68.92;100246.63;1649659;85;21050;-66
2022/02/11 14:46:46;;;;;;;22.55;14.75;;;;;;;13.37;68.22;100245.84;1648991;85;20981;-66
2022/02/11 14:49:12;;;;;;;25.43;15.78;;;;;;;13.49;67.16;100242.62;1648550;85;20997;-66
2022/02/11 14:51:39;;;;;;;21.50;14.28;;;;;;;13.39;67.07;100242.50;1647245;85;21840;-70
2022/02/11 14:54:11;;;;;;;18.80;12.10;;;;;;;13.62;66.32;100239.47;1647106;85;21116;-66
2022/02/11 14:56:39;;;;;;;20.12;14.10;;;;;;;13.76;65.73;100244.70;1651073;85;21084;-67
2022/02/11 14:59:08;;;;;;;19.17;12.70;;;;;;;13.62;67.36;100248.64;1644502;85;21037;-66
2022/02/11 15:01:35;;;;;;;18.12;12.35;;;;;;;13.74;66.04;100242.27;1646612;85;21021;-69
2022/02/11 15:04:03;;;;;;;18.20;12.37;;;;;;;13.55;67.00;100247.03;1649954;85;21161;-68
2022/02/11 15:06:29;;;;;;;20.12;13.05;;;;;;;13.59;68.91;100242.48;1636770;85;21608;-68
2022/02/11 15:08:57;;;;;;;17.55;12.53;;;;;;;13.22;69.88;100250.91;1680085;83;21751;-65
2022/02/11 15:11:26;;;;;;;21.45;13.25;;;;;;;12.87;76.09;100247.95;1681694;83;21018;-68